Weather History for Knox, IN

Change the Weather History Date:

Wednesday, October 17, 2012

  Actual Average (KVPZ) Record (KVPZ)
Temperature  
Mean Temperature 62 °F 52 °F  
Max Temperature 93 °F 62 °F 74 °F (2007)
Min Temperature 55 °F 42 °F 30 °F (2003)
Degree Days  
Heating Degree Days 2 13  
Month to date heating degree days 187  
Since 1 July heating degree days 317  
Cooling Degree Days 0 0  
Month to date cooling degree days 11  
Year to date cooling degree days 713  
Growing Degree Days 12 (Base 50)    
Moisture  
Dew Point 50 °F    
Average Humidity 70    
Maximum Humidity 94    
Minimum Humidity 44    
Precipitation  
Precipitation 0.00 in 0.11 in 0.73 in (2012)
Month to date precipitation 1.77  
Year to date precipitation 30.52  
Sea Level Pressure  
Sea Level Pressure 29.55 in    
Wind  
Wind Speed 14 mph (South)    
Max Wind Speed 24 mph    
Max Gust Speed 38 mph    
Visibility 9 miles    
Events      
T = Trace of Precipitation, MM = Missing Value Source: NWS Daily Summary

Daily Weather History Graph

Daily Weather History Graph

Search for Another Location

Airport:

Trip Planner

Search our weather history database for the weather conditions in past years. The results will help you decide how hot, cold, wet, or windy it might be!

Date:

Astronomy

Oct. 17, 2012 Rise Set
Actual Time 7:01 AM CDT 6:01 PM CDT
Civil Twilight 6:33 AM CDT 6:29 PM CDT
Nautical Twilight 6:01 AM CDT 7:01 PM CDT
Astronomical Twilight 5:29 AM CDT 7:33 PM CDT
Moon 9:36 AM CDT (10/17) 7:35 PM CDT (10/17)
Length of Visible Light 11h 56m
Length of Day
11h 00m
Waxing Crescent, 7% of the Moon is Illuminated
Oct 17
Waxing Crescent
Oct 21
First Quarter
Oct 29
Full
Nov 6
Last Quarter
Nov 13
New

Hourly Weather History & Observations

Time (CDT) Temp. Dew Point Humidity Pressure Visibility Wind Dir Wind Speed Gust Speed Precip Events Conditions
12:35 AM 60.8 °F 47.5 °F 62% 29.64 in 10.0 mi South 13.8 mph 17.3 mph N/A   Mostly Cloudy
12:55 AM 60.3 °F 47.7 °F 63% 29.64 in 10.0 mi South 11.5 mph - N/A   Scattered Clouds
1:35 AM 59.4 °F 48.2 °F 67% 29.65 in 10.0 mi South 11.5 mph - N/A   Clear
1:55 AM 59.4 °F 48.4 °F 67% 29.65 in 10.0 mi South 13.8 mph 17.3 mph N/A   Scattered Clouds
2:15 AM 59.2 °F 48.6 °F 68% 29.65 in 10.0 mi South 12.7 mph - N/A   Scattered Clouds
2:55 AM 58.3 °F 48.6 °F 70% 29.63 in 10.0 mi South 11.5 mph - N/A   Clear
3:15 AM 57.6 °F 48.6 °F 72% 29.63 in 10.0 mi South 11.5 mph - N/A   Clear
3:35 AM 57.0 °F 48.6 °F 73% 29.63 in 10.0 mi South 9.2 mph - N/A   Clear
3:55 AM 57.2 °F 48.7 °F 73% 29.63 in 10.0 mi South 10.4 mph - N/A   Clear
4:15 AM 57.2 °F 48.7 °F 73% 29.63 in 10.0 mi South 11.5 mph - N/A   Clear
4:35 AM 57.0 °F 48.7 °F 74% 29.63 in 10.0 mi South 11.5 mph - N/A   Clear
4:55 AM 56.7 °F 48.6 °F 74% 29.63 in 10.0 mi South 10.4 mph - N/A   Clear
5:15 AM 56.5 °F 48.4 °F 74% 29.62 in 10.0 mi South 11.5 mph - N/A   Clear
5:35 AM 56.5 °F 48.0 °F 73% 29.62 in 10.0 mi South 11.5 mph - N/A   Clear
5:55 AM 56.5 °F 47.5 °F 72% 29.62 in 10.0 mi South 11.5 mph - N/A   Clear
6:15 AM 56.3 °F 47.3 °F 72% 29.62 in 10.0 mi South 11.5 mph - N/A   Clear
6:35 AM 56.1 °F 46.8 °F 71% 29.63 in 10.0 mi South 11.5 mph - N/A   Clear
6:55 AM 55.9 °F 46.4 °F 70% 29.63 in 10.0 mi SSW 11.5 mph 20.7 mph N/A   Clear
7:15 AM 55.8 °F 46.2 °F 70% 29.63 in 10.0 mi South 12.7 mph - N/A   Clear
7:35 AM 55.8 °F 46.2 °F 70% 29.62 in 10.0 mi South 12.7 mph - N/A   Clear
7:55 AM 56.5 °F 46.4 °F 69% 29.62 in 10.0 mi South 11.5 mph - N/A   Clear
8:15 AM 57.6 °F 46.6 °F 67% 29.63 in 10.0 mi South 13.8 mph - N/A   Clear
8:35 AM 58.8 °F 47.1 °F 65% 29.62 in 10.0 mi South 15.0 mph 21.9 mph N/A   Clear
8:55 AM 60.1 °F 47.7 °F 64% 29.62 in 10.0 mi SSW 17.3 mph 25.3 mph N/A   Clear
9:15 AM 61.2 °F 48.2 °F 62% 29.62 in 10.0 mi South 21.9 mph 26.5 mph N/A   Clear
9:35 AM 62.2 °F 48.6 °F 61% 29.61 in 10.0 mi SSW 16.1 mph 25.3 mph N/A   Clear
9:55 AM 62.8 °F 48.4 °F 59% 29.61 in 10.0 mi SSW 17.3 mph 25.3 mph N/A   Clear
10:15 AM 64.2 °F 48.2 °F 56% 29.60 in 10.0 mi South 16.1 mph - N/A   Clear
10:35 AM 66.2 °F 47.7 °F 51% 29.59 in 10.0 mi South 16.1 mph - N/A   Clear
10:55 AM 67.5 °F 46.8 °F 47% 29.59 in 10.0 mi South 20.7 mph 26.5 mph N/A   Clear
11:15 AM 67.8 °F 46.0 °F 46% 29.58 in 10.0 mi SSW 19.6 mph 27.6 mph N/A   Clear
11:35 AM 68.5 °F 46.2 °F 45% 29.58 in 10.0 mi South 19.6 mph 27.6 mph N/A   Clear
11:55 AM 68.5 °F 46.6 °F 45% 29.58 in 10.0 mi South 18.4 mph 26.5 mph N/A   Clear
12:15 PM 70.3 °F 47.5 °F 44% 29.57 in 10.0 mi South 20.7 mph 27.6 mph N/A   Scattered Clouds
12:35 PM 70.0 °F 48.4 °F 46% 29.57 in 10.0 mi South 24.2 mph 32.2 mph N/A   Mostly Cloudy
12:55 PM 69.3 °F 48.7 °F 48% 29.55 in 10.0 mi South 21.9 mph 32.2 mph N/A   Overcast
1:15 PM 68.7 °F 49.1 °F 50% 29.54 in 10.0 mi SSW 23.0 mph 32.2 mph N/A   Overcast
1:55 PM 68.0 °F 49.5 °F 51% 29.54 in 10.0 mi South 18.4 mph 27.6 mph N/A   Overcast
2:15 PM 67.3 °F 49.3 °F 52% 29.53 in 10.0 mi SSW 16.1 mph 26.5 mph N/A   Overcast
2:35 PM 67.1 °F 49.3 °F 53% 29.52 in 10.0 mi South 16.1 mph 23.0 mph N/A   Overcast
2:55 PM 66.7 °F 49.3 °F 53% 29.51 in 10.0 mi South 16.1 mph 25.3 mph N/A   Overcast
3:15 PM 66.4 °F 49.1 °F 54% 29.51 in 10.0 mi SSW 18.4 mph 29.9 mph N/A   Overcast
3:35 PM 66.0 °F 49.1 °F 54% 29.51 in 10.0 mi South 11.5 mph 17.3 mph N/A   Overcast
4:15 PM 66.2 °F 49.3 °F 54% 29.49 in 10.0 mi South 15.0 mph 24.2 mph N/A   Overcast
4:35 PM 66.2 °F 49.1 °F 54% 29.50 in 10.0 mi SSW 24.2 mph 32.2 mph N/A   Overcast
4:55 PM 64.6 °F 50.0 °F 59% 29.51 in 5.0 mi South 21.9 mph 38.0 mph N/A   Overcast
5:15 PM 60.1 °F 54.1 °F 81% 29.52 in 3.0 mi South 17.3 mph 20.7 mph N/A   Overcast
5:35 PM 58.1 °F 55.4 °F 91% 29.51 in 4.0 mi SE 12.7 mph - N/A   Overcast
5:55 PM 57.6 °F 55.0 °F 91% 29.51 in 10.0 mi SE 9.2 mph - N/A   Overcast
6:15 PM 57.4 °F 54.7 °F 91% 29.50 in 10.0 mi SE 10.4 mph - N/A   Overcast
6:35 PM 57.2 °F 54.5 °F 91% 29.49 in 10.0 mi SE 12.7 mph - N/A   Overcast
6:55 PM 57.2 °F 54.5 °F 91% 29.47 in 10.0 mi SE 11.5 mph 23.0 mph N/A   Overcast
7:15 PM 57.6 °F 54.3 °F 89% 29.46 in 10.0 mi SE 13.8 mph 19.6 mph N/A   Overcast
7:35 PM 57.9 °F 54.5 °F 88% 29.45 in 10.0 mi SE 12.7 mph - N/A   Overcast
7:55 PM 57.9 °F 54.5 °F 88% 29.43 in 7.0 mi SE 13.8 mph - N/A   Overcast
8:15 PM 57.9 °F 54.7 °F 89% 29.42 in 10.0 mi SE 16.1 mph - N/A   Overcast
8:35 PM 58.3 °F 54.7 °F 88% 29.40 in 10.0 mi SE 13.8 mph - N/A   Mostly Cloudy
8:55 PM 58.6 °F 54.5 °F 86% 29.40 in 10.0 mi SE 15.0 mph 19.6 mph N/A   Mostly Cloudy
9:15 PM 58.6 °F 54.5 °F 86% 29.38 in 10.0 mi SE 13.8 mph - N/A   Mostly Cloudy
9:35 PM 58.8 °F 54.5 °F 86% 29.41 in 10.0 mi SSE 15.0 mph - N/A   Mostly Cloudy
9:55 PM 58.5 °F 54.7 °F 87% 29.43 in 7.0 mi SSE 16.1 mph 20.7 mph N/A   Overcast
10:15 PM 57.9 °F 55.2 °F 91% 29.43 in 5.0 mi South 15.0 mph 19.6 mph N/A   Overcast
10:35 PM 57.4 °F 55.4 °F 93% 29.43 in 5.0 mi South 13.8 mph 23.0 mph N/A   Overcast
10:55 PM 57.2 °F 55.6 °F 94% 29.42 in 7.0 mi SSE 16.1 mph 23.0 mph N/A   Overcast
11:15 PM 57.2 °F 55.6 °F 94% 29.40 in 7.0 mi South 17.3 mph - N/A   Overcast
11:35 PM 57.4 °F 55.8 °F 94% 29.38 in 7.0 mi South 19.6 mph 26.5 mph N/A   Overcast
11:55 PM 57.2 °F 55.6 °F 94% 29.38 in 10.0 mi South 16.1 mph 23.0 mph N/A   Overcast